sensor_id;sensor_type;location;lat;lon;timestamp;pressure;altitude;pressure_sealevel;temperature;humidity
70434;BME280;57876;47.792;12.960;2023-04-01T00:01:39;95558.63;;;14.27;46.42
70434;BME280;57876;47.792;12.960;2023-04-01T00:04:04;95555.13;;;14.27;46.71
70434;BME280;57876;47.792;12.960;2023-04-01T00:06:28;95555.91;;;14.27;46.51
70434;BME280;57876;47.792;12.960;2023-04-01T00:08:55;95562.13;;;14.28;46.47
70434;BME280;57876;47.792;12.960;2023-04-01T00:11:20;95564.06;;;14.27;46.56
70434;BME280;57876;47.792;12.960;2023-04-01T00:13:45;95564.06;;;14.27;46.56
70434;BME280;57876;47.792;12.960;2023-04-01T00:16:09;95570.28;;;14.28;46.57
70434;BME280;57876;47.792;12.960;2023-04-01T00:18:34;95571.13;;;14.28;46.57
70434;BME280;57876;47.792;12.960;2023-04-01T00:20:58;95571.13;;;14.28;46.52
70434;BME280;57876;47.792;12.960;2023-04-01T00:23:23;95574.94;;;14.27;46.81
70434;BME280;57876;47.792;12.960;2023-04-01T00:25:48;95572.22;;;14.27;46.51
70434;BME280;57876;47.792;12.960;2023-04-01T00:28:18;95570.28;;;14.28;46.42
70434;BME280;57876;47.792;12.960;2023-04-01T00:30:42;95575.72;;;14.28;46.58
70434;BME280;57876;47.792;12.960;2023-04-01T00:33:07;95583.09;;;14.27;46.75
70434;BME280;57876;47.792;12.960;2023-04-01T00:35:31;95583.88;;;14.28;46.61
70434;BME280;57876;47.792;12.960;2023-04-01T00:37:56;95591.25;;;14.27;46.65
70434;BME280;57876;47.792;12.960;2023-04-01T00:40:26;95597.50;;;14.28;46.87
70434;BME280;57876;47.792;12.960;2023-04-01T00:42:51;95602.13;;;14.27;46.51
70434;BME280;57876;47.792;12.960;2023-04-01T00:47:51;95596.69;;;14.27;46.61
70434;BME280;57876;47.792;12.960;2023-04-01T00:50:16;95612.22;;;14.27;46.62
70434;BME280;57876;47.792;12.960;2023-04-01T00:52:40;95630.94;;;14.28;46.33
70434;BME280;57876;47.792;12.960;2023-04-01T00:55:06;95614.16;;;14.26;46.49
70434;BME280;57876;47.792;12.960;2023-04-01T00:57:34;95612.22;;;14.27;46.53
70434;BME280;57876;47.792;12.960;2023-04-01T01:00:00;95617.66;;;14.27;46.65
70434;BME280;57876;47.792;12.960;2023-04-01T01:02:25;95613.81;;;14.28;46.62
70434;BME280;57876;47.792;12.960;2023-04-01T01:04:50;95600.56;;;14.26;46.68
70434;BME280;57876;47.792;12.960;2023-04-01T01:12:35;95602.13;;;14.27;46.63
70434;BME280;57876;47.792;12.960;2023-04-01T01:17:42;95611.44;;;14.26;46.59
70434;BME280;57876;47.792;12.960;2023-04-01T01:33:50;95610.66;;;14.26;46.35
70434;BME280;57876;47.792;12.960;2023-04-01T01:36:19;95615.28;;;14.25;46.85
70434;BME280;57876;47.792;12.960;2023-04-01T01:38:46;95613.69;;;14.24;46.62
70434;BME280;57876;47.792;12.960;2023-04-01T01:41:13;95592.72;;;14.25;46.40
70434;BME280;57876;47.792;12.960;2023-04-01T01:43:43;95591.63;;;14.26;46.71
70434;BME280;57876;47.792;12.960;2023-04-01T01:46:12;95582.63;;;14.25;46.35
70434;BME280;57876;47.792;12.960;2023-04-01T01:48:40;95581.53;;;14.26;46.54
70434;BME280;57876;47.792;12.960;2023-04-01T01:51:06;95590.78;;;14.25;46.71
70434;BME280;57876;47.792;12.960;2023-04-01T01:53:31;95600.56;;;14.26;46.53
70434;BME280;57876;47.792;12.960;2023-04-01T01:55:55;95597.06;;;14.26;46.36
70434;BME280;57876;47.792;12.960;2023-04-01T02:00:57;95597.38;;;14.24;46.51
70434;BME280;57876;47.792;12.960;2023-04-01T02:03:24;95595.44;;;14.25;46.81
70434;BME280;57876;47.792;12.960;2023-04-01T02:05:53;95598.16;;;14.25;46.63
70434;BME280;57876;47.792;12.960;2023-04-01T02:08:39;95575.63;;;14.24;46.41
70434;BME280;57876;47.792;12.960;2023-04-01T02:11:07;95584.25;;;14.26;46.54
70434;BME280;57876;47.792;12.960;2023-04-01T02:13:52;95575.31;;;14.26;46.59
70434;BME280;57876;47.792;12.960;2023-04-01T02:16:27;95585.34;;;14.25;46.56
70434;BME280;57876;47.792;12.960;2023-04-01T02:18:55;95585.34;;;14.25;46.30
70434;BME280;57876;47.792;12.960;2023-04-01T02:21:22;95586.19;;;14.26;46.58
70434;BME280;57876;47.792;12.960;2023-04-01T02:23:50;95594.34;;;14.26;46.77
70434;BME280;57876;47.792;12.960;2023-04-01T02:26:16;95591.16;;;14.24;46.75
70434;BME280;57876;47.792;12.960;2023-04-01T02:28:42;95589.69;;;14.26;46.94
70434;BME280;57876;47.792;12.960;2023-04-01T02:31:09;95595.13;;;14.26;46.58
70434;BME280;57876;47.792;12.960;2023-04-01T02:33:34;95594.66;;;14.24;46.57
70434;BME280;57876;47.792;12.960;2023-04-01T02:35:59;95587.28;;;14.25;46.60
70434;BME280;57876;47.792;12.960;2023-04-01T02:38:23;95582.63;;;14.25;46.65
70434;BME280;57876;47.792;12.960;2023-04-01T02:40:51;95571.75;;;14.25;46.64
70434;BME280;57876;47.792;12.960;2023-04-01T02:43:20;95578.81;;;14.26;46.66
70434;BME280;57876;47.792;12.960;2023-04-01T02:45:45;95579.91;;;14.25;46.62
70434;BME280;57876;47.792;12.960;2023-04-01T02:48:09;95582.63;;;14.25;46.49
70434;BME280;57876;47.792;12.960;2023-04-01T02:50:34;95590.00;;;14.25;46.82
70434;BME280;57876;47.792;12.960;2023-04-01T02:52:58;95583.78;;;14.24;46.87
70434;BME280;57876;47.792;12.960;2023-04-01T02:55:23;95588.09;;;14.25;46.60
70434;BME280;57876;47.792;12.960;2023-04-01T02:57:47;95594.34;;;14.26;46.56
70434;BME280;57876;47.792;12.960;2023-04-01T03:00:12;95600.09;;;14.24;46.53
70434;BME280;57876;47.792;12.960;2023-04-01T03:02:38;95604.41;;;14.25;46.71
70434;BME280;57876;47.792;12.960;2023-04-01T03:05:03;95616.09;;;14.26;46.35
70434;BME280;57876;47.792;12.960;2023-04-01T03:07:28;95619.13;;;14.24;46.73
70434;BME280;57876;47.792;12.960;2023-04-01T03:09:52;95628.09;;;14.25;46.58
70434;BME280;57876;47.792;12.960;2023-04-01T03:12:16;95626.97;;;14.26;46.50
70434;BME280;57876;47.792;12.960;2023-04-01T03:14:41;95635.44;;;14.24;46.39
70434;BME280;57876;47.792;12.960;2023-04-01T03:17:05;95625.38;;;14.25;46.50
70434;BME280;57876;47.792;12.960;2023-04-01T03:19:30;95625.38;;;14.25;46.76
70434;BME280;57876;47.792;12.960;2023-04-01T03:21:55;95627.75;;;14.26;46.42
70434;BME280;57876;47.792;12.960;2023-04-01T03:24:20;95634.31;;;14.25;46.48
70434;BME280;57876;47.792;12.960;2023-04-01T03:26:44;95632.41;;;14.26;46.35
70434;BME280;57876;47.792;12.960;2023-04-01T03:29:08;95635.13;;;14.26;46.76
70434;BME280;57876;47.792;12.960;2023-04-01T03:31:33;95637.84;;;14.26;46.53
70434;BME280;57876;47.792;12.960;2023-04-01T03:33:58;95640.88;;;14.24;46.57
70434;BME280;57876;47.792;12.960;2023-04-01T03:36:22;95653.34;;;14.25;46.65
70434;BME280;57876;47.792;12.960;2023-04-01T03:38:47;95649.50;;;14.26;46.71
70434;BME280;57876;47.792;12.960;2023-04-01T03:41:16;95653.34;;;14.25;46.53
70434;BME280;57876;47.792;12.960;2023-04-01T03:43:41;95637.03;;;14.25;46.41
70434;BME280;57876;47.792;12.960;2023-04-01T03:46:05;95631.59;;;14.25;46.71
70434;BME280;57876;47.792;12.960;2023-04-01T03:48:30;95632.72;;;14.24;46.78
70434;BME280;57876;47.792;12.960;2023-04-01T03:50:54;95630.00;;;14.24;46.75
70434;BME280;57876;47.792;12.960;2023-04-01T03:53:19;95628.88;;;14.25;46.48
70434;BME280;57876;47.792;12.960;2023-04-01T03:55:43;95642.47;;;14.25;46.82
70434;BME280;57876;47.792;12.960;2023-04-01T03:58:08;95643.63;;;14.24;46.76
70434;BME280;57876;47.792;12.960;2023-04-01T04:00:33;95652.56;;;14.25;46.33
70434;BME280;57876;47.792;12.960;2023-04-01T04:02:58;95662.31;;;14.26;46.74
70434;BME280;57876;47.792;12.960;2023-04-01T04:05:24;95654.84;;;14.23;46.48
70434;BME280;57876;47.792;12.960;2023-04-01T04:07:49;95657.56;;;14.23;46.71
70434;BME280;57876;47.792;12.960;2023-04-01T04:10:13;95663.44;;;14.25;46.66
70434;BME280;57876;47.792;12.960;2023-04-01T04:12:37;95665.38;;;14.24;46.87
70434;BME280;57876;47.792;12.960;2023-04-01T04:15:02;95661.50;;;14.25;46.41
70434;BME280;57876;47.792;12.960;2023-04-01T04:17:26;95658.00;;;14.25;46.66
70434;BME280;57876;47.792;12.960;2023-04-01T04:19:51;95663.44;;;14.25;46.71
70434;BME280;57876;47.792;12.960;2023-04-01T04:22:15;95666.03;;;14.21;46.44
70434;BME280;57876;47.792;12.960;2023-04-01T04:24:39;95664.56;;;14.24;46.55
70434;BME280;57876;47.792;12.960;2023-04-01T04:27:04;95666.94;;;14.25;46.23
70434;BME280;57876;47.792;12.960;2023-04-01T04:29:29;95659.94;;;14.24;46.63
70434;BME280;57876;47.792;12.960;2023-04-01T04:31:53;95663.44;;;14.25;46.49
70434;BME280;57876;47.792;12.960;2023-04-01T04:34:18;95648.72;;;14.26;46.57
70434;BME280;57876;47.792;12.960;2023-04-01T04:36:42;95662.66;;;14.24;46.69
70434;BME280;57876;47.792;12.960;2023-04-01T04:39:06;95659.47;;;14.22;46.16
70434;BME280;57876;47.792;12.960;2023-04-01T04:41:31;95661.84;;;14.24;46.24
70434;BME280;57876;47.792;12.960;2023-04-01T04:43:56;95664.56;;;14.24;46.27
70434;BME280;57876;47.792;12.960;2023-04-01T04:46:22;95661.84;;;14.24;46.47
70434;BME280;57876;47.792;12.960;2023-04-01T04:48:46;95672.75;;;14.24;46.59
70434;BME280;57876;47.792;12.960;2023-04-01T04:51:18;95666.50;;;14.23;46.73
70434;BME280;57876;47.792;12.960;2023-04-01T04:53:44;95671.94;;;14.23;46.73
70434;BME280;57876;47.792;12.960;2023-04-01T04:56:10;95661.06;;;14.23;46.41
70434;BME280;57876;47.792;12.960;2023-04-01T04:58:35;95658.34;;;14.23;46.66
70434;BME280;57876;47.792;12.960;2023-04-01T05:01:06;95665.38;;;14.24;46.36
70434;BME280;57876;47.792;12.960;2023-04-01T05:03:30;95660.28;;;14.23;46.82
70434;BME280;57876;47.792;12.960;2023-04-01T05:05:55;95655.63;;;14.23;46.82
70434;BME280;57876;47.792;12.960;2023-04-01T05:08:19;95661.84;;;14.24;46.93
70434;BME280;57876;47.792;12.960;2023-04-01T05:10:44;95666.50;;;14.23;46.47
70434;BME280;57876;47.792;12.960;2023-04-01T05:13:09;95655.63;;;14.23;46.88
70434;BME280;57876;47.792;12.960;2023-04-01T05:15:33;95656.41;;;14.24;46.59
70434;BME280;57876;47.792;12.960;2023-04-01T05:17:58;95650.19;;;14.23;46.60
70434;BME280;57876;47.792;12.960;2023-04-01T05:20:22;95662.66;;;14.24;46.33
70434;BME280;57876;47.792;12.960;2023-04-01T05:22:46;95660.28;;;14.23;46.43
70434;BME280;57876;47.792;12.960;2023-04-01T05:25:11;95668.44;;;14.23;46.34
70434;BME280;57876;47.792;12.960;2023-04-01T05:27:35;95669.22;;;14.23;46.58
70434;BME280;57876;47.792;12.960;2023-04-01T05:29:59;95661.06;;;14.23;46.86
70434;BME280;57876;47.792;12.960;2023-04-01T05:32:24;95662.66;;;14.24;46.76
70434;BME280;57876;47.792;12.960;2023-04-01T05:34:52;95670.00;;;14.24;46.50
70434;BME280;57876;47.792;12.960;2023-04-01T05:37:17;95655.63;;;14.23;46.50
70434;BME280;57876;47.792;12.960;2023-04-01T05:39:41;95656.41;;;14.24;46.74
70434;BME280;57876;47.792;12.960;2023-04-01T05:42:06;95659.94;;;14.24;46.78
70434;BME280;57876;47.792;12.960;2023-04-01T05:44:31;95655.63;;;14.23;46.46
70434;BME280;57876;47.792;12.960;2023-04-01T05:46:56;95661.06;;;14.23;46.49
70434;BME280;57876;47.792;12.960;2023-04-01T05:49:20;95652.13;;;14.23;46.73
70434;BME280;57876;47.792;12.960;2023-04-01T05:51:45;95661.84;;;14.24;46.67
70434;BME280;57876;47.792;12.960;2023-04-01T05:54:09;95670.00;;;14.24;46.49
70434;BME280;57876;47.792;12.960;2023-04-01T05:56:33;95675.47;;;14.24;46.50
70434;BME280;57876;47.792;12.960;2023-04-01T05:58:58;95671.94;;;14.23;46.52
70434;BME280;57876;47.792;12.960;2023-04-01T06:01:22;95671.16;;;14.23;46.76
70434;BME280;57876;47.792;12.960;2023-04-01T06:03:46;95670.81;;;14.24;46.72
70434;BME280;57876;47.792;12.960;2023-04-01T06:06:33;95668.88;;;14.25;46.68
70434;BME280;57876;47.792;12.960;2023-04-01T06:09:07;95676.59;;;14.23;46.65
70434;BME280;57876;47.792;12.960;2023-04-01T06:17:30;95667.28;;;14.24;46.58
70434;BME280;57876;47.792;12.960;2023-04-01T06:39:42;95661.06;;;14.23;46.57
70434;BME280;57876;47.792;12.960;2023-04-01T06:53:31;95677.38;;;14.23;46.46
70434;BME280;57876;47.792;12.960;2023-04-01T06:56:04;95673.88;;;14.23;46.48
70434;BME280;57876;47.792;12.960;2023-04-01T06:58:36;95670.34;;;14.22;46.56
70434;BME280;57876;47.792;12.960;2023-04-01T07:01:04;95676.25;;;14.24;46.83
70434;BME280;57876;47.792;12.960;2023-04-01T07:03:34;95678.97;;;14.24;46.62
70434;BME280;57876;47.792;12.960;2023-04-01T07:06:04;95673.53;;;14.24;46.65
70434;BME280;57876;47.792;12.960;2023-04-01T07:08:31;95669.66;;;14.25;46.83
70434;BME280;57876;47.792;12.960;2023-04-01T07:11:09;95668.88;;;14.25;46.66
70434;BME280;57876;47.792;12.960;2023-04-01T07:14:06;95685.19;;;14.25;46.37
70434;BME280;57876;47.792;12.960;2023-04-01T07:16:42;95676.59;;;14.23;46.43
70434;BME280;57876;47.792;12.960;2023-04-01T07:22:23;95689.53;;;14.26;46.44
70434;BME280;57876;47.792;12.960;2023-04-01T07:24:51;95683.25;;;14.25;46.62
70434;BME280;57876;47.792;12.960;2023-04-01T07:27:16;95675.09;;;14.25;46.56
70434;BME280;57876;47.792;12.960;2023-04-01T07:29:41;95677.50;;;14.27;46.69
70434;BME280;57876;47.792;12.960;2023-04-01T07:35:07;95679.44;;;14.26;46.68
70434;BME280;57876;47.792;12.960;2023-04-01T07:38:25;95677.50;;;14.27;46.58
70434;BME280;57876;47.792;12.960;2023-04-01T07:40:41;95679.44;;;14.26;46.47
70434;BME280;57876;47.792;12.960;2023-04-01T07:43:42;95687.59;;;14.26;46.56
70434;BME280;57876;47.792;12.960;2023-04-01T07:46:26;95677.81;;;14.25;46.51
70434;BME280;57876;47.792;12.960;2023-04-01T07:49:03;95674.00;;;14.26;46.68
70434;BME280;57876;47.792;12.960;2023-04-01T07:54:06;95674.00;;;14.26;46.64
70434;BME280;57876;47.792;12.960;2023-04-01T07:56:49;95684.88;;;14.26;46.54
70434;BME280;57876;47.792;12.960;2023-04-01T07:59:30;95678.63;;;14.26;46.34
70434;BME280;57876;47.792;12.960;2023-04-01T08:08:06;95680.22;;;14.27;46.57
70434;BME280;57876;47.792;12.960;2023-04-01T08:10:44;95682.16;;;14.26;46.52
70434;BME280;57876;47.792;12.960;2023-04-01T08:21:02;95675.56;;;14.27;46.63
70434;BME280;57876;47.792;12.960;2023-04-01T08:28:32;95682.63;;;14.28;46.53
70434;BME280;57876;47.792;12.960;2023-04-01T08:31:04;95691.88;;;14.27;46.65
70434;BME280;57876;47.792;12.960;2023-04-01T08:33:32;95679.44;;;14.26;46.58
70434;BME280;57876;47.792;12.960;2023-04-01T08:36:15;95679.91;;;14.28;46.39
70434;BME280;57876;47.792;12.960;2023-04-01T08:38:44;95680.69;;;14.29;46.73
70434;BME280;57876;47.792;12.960;2023-04-01T08:43:58;95680.69;;;14.29;46.35
70434;BME280;57876;47.792;12.960;2023-04-01T08:49:22;95675.25;;;14.29;46.75
70434;BME280;57876;47.792;12.960;2023-04-01T08:54:47;95672.53;;;14.29;46.59
70434;BME280;57876;47.792;12.960;2023-04-01T08:57:42;95669.00;;;14.28;46.54
70434;BME280;57876;47.792;12.960;2023-04-01T09:05:47;95668.66;;;14.30;46.60
70434;BME280;57876;47.792;12.960;2023-04-01T09:21:57;95658.94;;;14.29;46.54
70434;BME280;57876;47.792;12.960;2023-04-01T09:24:42;95669.81;;;14.29;46.29
70434;BME280;57876;47.792;12.960;2023-04-01T09:27:29;95663.56;;;14.28;46.60
70434;BME280;57876;47.792;12.960;2023-04-01T09:37:35;95663.22;;;14.30;46.40
70434;BME280;57876;47.792;12.960;2023-04-01T09:51:20;95640.22;;;14.27;46.62
70434;BME280;57876;47.792;12.960;2023-04-01T10:15:48;95625.94;;;14.30;46.61
70434;BME280;57876;47.792;12.960;2023-04-01T10:21:22;95632.53;;;14.29;46.27
70434;BME280;57876;47.792;12.960;2023-04-01T10:24:20;95623.22;;;14.30;46.41
70434;BME280;57876;47.792;12.960;2023-04-01T10:27:09;95616.19;;;14.29;46.57
70434;BME280;57876;47.792;12.960;2023-04-01T10:29:51;95617.78;;;14.30;46.43
70434;BME280;57876;47.792;12.960;2023-04-01T10:34:56;95607.72;;;14.31;46.50
70434;BME280;57876;47.792;12.960;2023-04-01T10:43:06;95590.59;;;14.30;46.51
70434;BME280;57876;47.792;12.960;2023-04-01T10:46:05;95592.19;;;14.31;46.45
70434;BME280;57876;47.792;12.960;2023-04-01T11:10:25;95568.81;;;14.30;46.57
70434;BME280;57876;47.792;12.960;2023-04-01T11:16:04;95565.00;;;14.31;46.72
70434;BME280;57876;47.792;12.960;2023-04-01T11:18:56;95558.75;;;14.31;46.68
70434;BME280;57876;47.792;12.960;2023-04-01T11:40:03;95543.22;;;14.31;46.38
70434;BME280;57876;47.792;12.960;2023-04-01T11:42:46;95549.47;;;14.32;46.48
70434;BME280;57876;47.792;12.960;2023-04-01T11:45:19;95544.03;;;14.32;46.62
70434;BME280;57876;47.792;12.960;2023-04-01T11:51:05;95525.66;;;14.29;46.55
70434;BME280;57876;47.792;12.960;2023-04-01T11:56:39;95528.50;;;14.32;46.57
70434;BME280;57876;47.792;12.960;2023-04-01T12:02:25;95527.69;;;14.32;46.51
70434;BME280;57876;47.792;12.960;2023-04-01T12:05:14;95537.00;;;14.31;46.35
70434;BME280;57876;47.792;12.960;2023-04-01T12:13:48;95545.94;;;14.31;46.50
70434;BME280;57876;47.792;12.960;2023-04-01T12:18:55;95544.69;;;14.29;46.56
70434;BME280;57876;47.792;12.960;2023-04-01T12:26:59;95560.34;;;14.32;46.61
70434;BME280;57876;47.792;12.960;2023-04-01T12:32:15;95565.00;;;14.31;46.42
70434;BME280;57876;47.792;12.960;2023-04-01T12:35:10;95570.44;;;14.31;46.79
70434;BME280;57876;47.792;12.960;2023-04-01T12:40:40;95588.31;;;14.32;46.62
70434;BME280;57876;47.792;12.960;2023-04-01T13:02:01;95588.31;;;14.32;46.69
70434;BME280;57876;47.792;12.960;2023-04-01T13:15:44;95582.09;;;14.32;46.60
70434;BME280;57876;47.792;12.960;2023-04-01T13:34:22;95664.47;;;14.32;46.47
70434;BME280;57876;47.792;12.960;2023-04-01T13:40:26;95662.53;;;14.33;46.46
70434;BME280;57876;47.792;12.960;2023-04-01T13:42:57;95676.03;;;14.29;46.48
70434;BME280;57876;47.792;12.960;2023-04-01T13:48:35;95671.84;;;14.32;46.52
70434;BME280;57876;47.792;12.960;2023-04-01T13:59:25;95677.28;;;14.32;46.60
70434;BME280;57876;47.792;12.960;2023-04-01T14:05:15;95675.34;;;14.32;46.79
70434;BME280;57876;47.792;12.960;2023-04-01T14:13:00;95661.75;;;14.32;46.45
70434;BME280;57876;47.792;12.960;2023-04-01T14:15:57;95665.63;;;14.31;46.44
70434;BME280;57876;47.792;12.960;2023-04-01T14:18:42;95675.34;;;14.32;46.49
70434;BME280;57876;47.792;12.960;2023-04-01T14:24:28;95661.75;;;14.32;46.25
70434;BME280;57876;47.792;12.960;2023-04-01T14:32:44;95671.06;;;14.31;46.43
70434;BME280;57876;47.792;12.960;2023-04-01T14:40:28;95680.78;;;14.32;46.53
70434;BME280;57876;47.792;12.960;2023-04-01T14:49:02;95688.97;;;14.32;46.58
70434;BME280;57876;47.792;12.960;2023-04-01T14:51:29;95680.78;;;14.32;46.53
70434;BME280;57876;47.792;12.960;2023-04-01T14:56:47;95685.56;;;14.36;46.42
70434;BME280;57876;47.792;12.960;2023-04-01T15:12:55;95706.03;;;14.54;46.73
70434;BME280;57876;47.792;12.960;2023-04-01T15:15:43;95695.94;;;14.54;46.76
70434;BME280;57876;47.792;12.960;2023-04-01T15:24:00;95699.28;;;14.60;46.92
70434;BME280;57876;47.792;12.960;2023-04-01T15:43:35;95717.91;;;14.95;47.26
70434;BME280;57876;47.792;12.960;2023-04-01T15:54:27;95721.66;;;14.90;47.60
70434;BME280;57876;47.792;12.960;2023-04-01T15:57:23;95722.31;;;14.87;48.00
70434;BME280;57876;47.792;12.960;2023-04-01T16:22:32;95774.56;;;14.68;47.61
70434;BME280;57876;47.792;12.960;2023-04-01T16:26:19;95780.81;;;14.69;47.60
70434;BME280;57876;47.792;12.960;2023-04-01T16:28:31;95798.59;;;14.66;47.59
70434;BME280;57876;47.792;12.960;2023-04-01T16:31:16;95802.44;;;14.65;47.79
70434;BME280;57876;47.792;12.960;2023-04-01T16:33:56;95792.69;;;14.64;47.63
70434;BME280;57876;47.792;12.960;2023-04-01T16:36:24;95779.09;;;14.64;47.56
70434;BME280;57876;47.792;12.960;2023-04-01T16:41:49;95767.28;;;14.60;47.42
70434;BME280;57876;47.792;12.960;2023-04-01T16:44:24;95779.75;;;14.61;47.57
70434;BME280;57876;47.792;12.960;2023-04-01T16:47:10;95781.34;;;14.62;47.68
70434;BME280;57876;47.792;12.960;2023-04-01T16:49:53;95780.91;;;14.60;47.70
70434;BME280;57876;47.792;12.960;2023-04-01T16:52:42;95771.81;;;14.56;47.54
70434;BME280;57876;47.792;12.960;2023-04-01T16:55:16;95766.03;;;14.58;47.57
70434;BME280;57876;47.792;12.960;2023-04-01T16:57:58;95782.69;;;14.56;47.46
70434;BME280;57876;47.792;12.960;2023-04-01T17:03:03;95774.53;;;14.56;47.66
70434;BME280;57876;47.792;12.960;2023-04-01T17:05:52;95782.69;;;14.56;47.46
70434;BME280;57876;47.792;12.960;2023-04-01T17:08:55;95786.56;;;14.55;47.40
70434;BME280;57876;47.792;12.960;2023-04-01T17:12:19;95777.25;;;14.56;47.58
70434;BME280;57876;47.792;12.960;2023-04-01T17:30:35;95799.69;;;14.53;47.44
70434;BME280;57876;47.792;12.960;2023-04-01T17:40:57;95813.59;;;14.51;47.47
70434;BME280;57876;47.792;12.960;2023-04-01T17:45:55;95818.25;;;14.51;47.35
70434;BME280;57876;47.792;12.960;2023-04-01T17:56:15;95822.88;;;14.50;47.34
70434;BME280;57876;47.792;12.960;2023-04-01T18:07:32;95815.88;;;14.49;47.32
70434;BME280;57876;47.792;12.960;2023-04-01T18:10:25;95828.66;;;14.49;47.52
70434;BME280;57876;47.792;12.960;2023-04-01T18:16:14;95825.50;;;14.47;47.30
70434;BME280;57876;47.792;12.960;2023-04-01T18:27:01;95846.13;;;14.48;47.35
70434;BME280;57876;47.792;12.960;2023-04-01T18:35:12;95849.97;;;14.47;47.33
70434;BME280;57876;47.792;12.960;2023-04-01T18:40:43;95855.41;;;14.47;47.42
70434;BME280;57876;47.792;12.960;2023-04-01T18:43:58;95856.06;;;14.44;47.55
70434;BME280;57876;47.792;12.960;2023-04-01T18:46:49;95838.28;;;14.46;47.34
70434;BME280;57876;47.792;12.960;2023-04-01T18:51:57;95848.38;;;14.46;47.20
70434;BME280;57876;47.792;12.960;2023-04-01T18:54:30;95846.44;;;14.46;46.79
70434;BME280;57876;47.792;12.960;2023-04-01T18:57:16;95860.84;;;14.47;47.28
70434;BME280;57876;47.792;12.960;2023-04-01T18:59:45;95862.31;;;14.44;47.54
70434;BME280;57876;47.792;12.960;2023-04-01T19:05:14;95861.97;;;14.46;47.26
70434;BME280;57876;47.792;12.960;2023-04-01T19:15:47;95863.91;;;14.45;47.35
70434;BME280;57876;47.792;12.960;2023-04-01T19:18:38;95868.56;;;14.45;47.12
70434;BME280;57876;47.792;12.960;2023-04-01T19:21:21;95874.00;;;14.45;47.06
70434;BME280;57876;47.792;12.960;2023-04-01T19:24:31;95875.09;;;14.44;47.38
70434;BME280;57876;47.792;12.960;2023-04-01T19:27:41;95880.53;;;14.44;47.05
70434;BME280;57876;47.792;12.960;2023-04-01T19:35:45;95887.91;;;14.43;47.16
70434;BME280;57876;47.792;12.960;2023-04-01T19:38:31;95880.53;;;14.44;47.19
70434;BME280;57876;47.792;12.960;2023-04-01T19:51:42;95869.66;;;14.44;46.97
70434;BME280;57876;47.792;12.960;2023-04-01T19:58:00;95878.97;;;14.43;47.12
70434;BME280;57876;47.792;12.960;2023-04-01T20:02:58;95882.81;;;14.42;47.27
70434;BME280;57876;47.792;12.960;2023-04-01T20:05:56;95881.56;;;14.39;47.00
70434;BME280;57876;47.792;12.960;2023-04-01T20:11:18;95890.97;;;14.42;47.34
70434;BME280;57876;47.792;12.960;2023-04-01T20:16:21;95892.88;;;14.41;47.21
70434;BME280;57876;47.792;12.960;2023-04-01T20:18:52;95892.88;;;14.41;46.90
70434;BME280;57876;47.792;12.960;2023-04-01T20:21:36;95882.00;;;14.41;47.33
70434;BME280;57876;47.792;12.960;2023-04-01T20:24:20;95887.44;;;14.41;47.16
70434;BME280;57876;47.792;12.960;2023-04-01T20:27:09;95887.44;;;14.41;47.09
70434;BME280;57876;47.792;12.960;2023-04-01T20:33:00;95890.16;;;14.41;47.21
70434;BME280;57876;47.792;12.960;2023-04-01T20:35:50;95892.88;;;14.41;47.05
70434;BME280;57876;47.792;12.960;2023-04-01T20:38:42;95890.50;;;14.40;47.05
70434;BME280;57876;47.792;12.960;2023-04-01T20:41:24;95889.38;;;14.41;47.35
70434;BME280;57876;47.792;12.960;2023-04-01T20:49:26;95890.03;;;14.38;47.18
70434;BME280;57876;47.792;12.960;2023-04-01T20:52:14;95893.22;;;14.40;47.17
70434;BME280;57876;47.792;12.960;2023-04-01T20:57:15;95892.44;;;14.39;47.09
70434;BME280;57876;47.792;12.960;2023-04-01T21:26:52;95918.03;;;14.38;47.00
70434;BME280;57876;47.792;12.960;2023-04-01T21:35:31;95916.09;;;14.39;46.97
70434;BME280;57876;47.792;12.960;2023-04-01T21:46:37;95918.69;;;14.35;46.76
70434;BME280;57876;47.792;12.960;2023-04-01T21:49:18;95928.13;;;14.38;47.04
70434;BME280;57876;47.792;12.960;2023-04-01T21:52:07;95928.00;;;14.34;47.12
70434;BME280;57876;47.792;12.960;2023-04-01T22:00:19;95940.13;;;14.37;47.16
70434;BME280;57876;47.792;12.960;2023-04-01T22:02:58;95939.78;;;14.38;47.08
70434;BME280;57876;47.792;12.960;2023-04-01T22:05:33;95944.44;;;14.38;47.21
70434;BME280;57876;47.792;12.960;2023-04-01T22:11:12;95942.84;;;14.37;47.11
70434;BME280;57876;47.792;12.960;2023-04-01T22:16:53;95941.72;;;14.38;47.04
70434;BME280;57876;47.792;12.960;2023-04-01T22:19:29;95928.66;;;14.31;47.00
70434;BME280;57876;47.792;12.960;2023-04-01T22:22:22;95938.22;;;14.37;47.12
70434;BME280;57876;47.792;12.960;2023-04-01T22:27:52;95935.50;;;14.37;47.09
70434;BME280;57876;47.792;12.960;2023-04-01T22:30:23;95928.00;;;14.34;47.21
70434;BME280;57876;47.792;12.960;2023-04-01T22:33:13;95940.13;;;14.37;46.84
70434;BME280;57876;47.792;12.960;2023-04-01T22:35:57;95936.16;;;14.34;47.41
70434;BME280;57876;47.792;12.960;2023-04-01T22:41:31;95948.63;;;14.35;46.97
70434;BME280;57876;47.792;12.960;2023-04-01T22:44:01;95945.91;;;14.35;47.13
70434;BME280;57876;47.792;12.960;2023-04-01T22:46:35;95942.84;;;14.37;47.15
70434;BME280;57876;47.792;12.960;2023-04-01T22:49:13;95943.66;;;14.37;47.08
70434;BME280;57876;47.792;12.960;2023-04-01T22:52:09;95947.50;;;14.36;47.11
70434;BME280;57876;47.792;12.960;2023-04-01T22:54:54;95931.81;;;14.33;47.22
70434;BME280;57876;47.792;12.960;2023-04-01T22:57:50;95950.53;;;14.35;47.00
70434;BME280;57876;47.792;12.960;2023-04-01T23:00:39;95951.03;;;14.37;46.91
70434;BME280;57876;47.792;12.960;2023-04-01T23:03:19;95952.47;;;14.34;46.97